createdAt,value
2022-11-13T00:02:22.937Z,24.30
2022-11-13T00:07:24.648Z,22.55
2022-11-13T00:12:26.451Z,24.83
2022-11-13T00:17:31.180Z,24.73
2022-11-13T00:22:32.895Z,24.77
2022-11-13T00:27:34.641Z,24.85
2022-11-13T00:32:37.883Z,24.15
2022-11-13T00:37:39.751Z,23.02
2022-11-13T00:42:41.386Z,22.92
2022-11-13T00:47:43.098Z,22.50
2022-11-13T00:52:44.784Z,23.38
2022-11-13T00:57:46.532Z,23.23
2022-11-13T01:02:48.185Z,23.48
2022-11-13T01:07:49.890Z,23.77
2022-11-13T01:12:51.586Z,22.67
2022-11-13T01:17:55.041Z,23.48
2022-11-13T01:22:56.721Z,23.63
2022-11-13T01:27:58.588Z,23.80
2022-11-13T01:33:00.268Z,23.48
2022-11-13T01:38:01.970Z,24.13
2022-11-13T01:43:28.702Z,24.83
2022-11-13T01:48:53.142Z,23.25
2022-11-13T01:53:56.198Z,24.30
2022-11-13T01:59:08.677Z,24.30
2022-11-13T02:04:10.578Z,23.73
2022-11-13T02:09:13.911Z,24.10
2022-11-13T02:14:17.817Z,24.85
2022-11-13T02:19:35.795Z,23.58
2022-11-13T02:24:44.973Z,24.40
2022-11-13T02:29:47.171Z,23.73
2022-11-13T02:34:49.010Z,24.65
2022-11-13T02:39:50.812Z,24.10
2022-11-13T02:44:52.487Z,23.85
2022-11-13T02:49:54.211Z,22.83
2022-11-13T02:54:55.887Z,22.58
2022-11-13T02:59:57.584Z,22.48
2022-11-13T03:05:14.760Z,21.73
2022-11-13T03:10:16.640Z,20.98
2022-11-13T03:15:18.325Z,20.73
2022-11-13T03:20:20.134Z,22.00
2022-11-13T03:25:21.859Z,20.88
2022-11-13T03:30:23.521Z,19.55
2022-11-13T03:35:28.651Z,19.13
2022-11-13T03:40:32.537Z,18.27
2022-11-13T03:45:34.614Z,17.27
2022-11-13T03:50:37.636Z,16.70
2022-11-13T03:55:43.509Z,17.55
2022-11-13T04:00:46.254Z,16.17
2022-11-13T04:05:49.662Z,14.90
2022-11-13T04:10:51.390Z,15.43
2022-11-13T04:15:53.077Z,14.35
2022-11-13T04:21:00.399Z,14.00
2022-11-13T04:26:02.090Z,14.05
2022-11-13T04:31:03.844Z,14.07
2022-11-13T04:36:05.806Z,14.30
2022-11-13T04:41:26.566Z,14.00
2022-11-13T04:46:28.236Z,12.77
2022-11-13T04:51:30.805Z,13.05
2022-11-13T04:56:32.579Z,13.23
2022-11-13T05:01:36.132Z,12.70
2022-11-13T05:06:37.865Z,13.52
2022-11-13T05:11:39.592Z,12.77
2022-11-13T05:16:41.297Z,12.77
2022-11-13T05:21:43.261Z,12.55
2022-11-13T05:26:44.958Z,11.80
2022-11-13T05:31:47.367Z,12.00
2022-11-13T05:36:48.992Z,12.20
2022-11-13T05:41:50.669Z,12.10
2022-11-13T05:46:52.431Z,12.00
2022-11-13T05:51:55.068Z,11.02
2022-11-13T05:56:56.727Z,10.40
2022-11-13T06:01:58.477Z,9.80
2022-11-13T06:07:00.263Z,9.95
2022-11-13T06:12:02.031Z,10.20
2022-11-13T06:17:03.783Z,10.85
2022-11-13T06:22:05.452Z,10.68
2022-11-13T06:27:07.173Z,10.25
2022-11-13T06:32:08.880Z,10.05
2022-11-13T06:37:10.544Z,11.07
2022-11-13T06:42:12.223Z,10.60
2022-11-13T06:47:13.878Z,10.15
2022-11-13T06:52:15.536Z,10.00
2022-11-13T06:57:17.221Z,11.02
2022-11-13T07:02:18.918Z,10.77
2022-11-13T07:07:20.658Z,10.30
2022-11-13T07:12:22.399Z,10.35
2022-11-13T07:17:24.075Z,10.57
2022-11-13T07:22:25.782Z,10.02
2022-11-13T07:27:27.469Z,10.05
2022-11-13T07:32:29.107Z,10.48
2022-11-13T07:37:30.790Z,11.43
2022-11-13T07:42:32.803Z,10.55
2022-11-13T07:47:34.528Z,11.18
2022-11-13T07:52:36.238Z,10.10
2022-11-13T07:57:37.908Z,10.75
2022-11-13T08:02:39.660Z,11.38
2022-11-13T08:07:41.376Z,10.95
2022-11-13T08:12:43.830Z,10.10
2022-11-13T08:17:54.112Z,9.60
2022-11-13T08:23:00.699Z,9.88
2022-11-13T08:28:02.440Z,10.77
2022-11-13T08:33:04.592Z,10.57
2022-11-13T08:38:08.270Z,11.48
2022-11-13T08:43:09.940Z,11.00
2022-11-13T08:48:11.644Z,11.90
2022-11-13T08:53:13.322Z,12.15
2022-11-13T08:58:15.175Z,13.25
2022-11-13T09:03:16.841Z,13.90
2022-11-13T09:08:18.579Z,13.60
2022-11-13T09:13:20.220Z,14.40
2022-11-13T09:18:21.974Z,14.13
2022-11-13T09:23:23.710Z,13.95
2022-11-13T09:28:25.516Z,14.38
2022-11-13T09:33:27.328Z,14.75
2022-11-13T09:38:31.993Z,14.45
2022-11-13T09:43:56.742Z,14.45
2022-11-13T09:49:07.738Z,14.15
2022-11-13T09:54:14.350Z,14.05
2022-11-13T09:59:37.207Z,13.55
2022-11-13T10:05:21.292Z,14.50
2022-11-13T10:10:41.696Z,13.90
2022-11-13T10:15:46.223Z,14.38
2022-11-13T10:20:51.375Z,13.80
2022-11-13T10:25:58.384Z,14.52
2022-11-13T10:31:00.124Z,14.43
2022-11-13T10:36:01.744Z,15.05
2022-11-13T10:41:15.413Z,14.35
2022-11-13T10:46:22.677Z,15.13
2022-11-13T10:51:35.289Z,14.30
2022-11-13T10:56:37.270Z,12.88
2022-11-13T11:01:40.355Z,13.63
2022-11-13T11:07:17.895Z,13.05
2022-11-13T11:12:23.108Z,12.82
2022-11-13T11:17:46.201Z,13.48
2022-11-13T11:22:57.692Z,13.90
2022-11-13T11:28:11.487Z,13.45
2022-11-13T11:33:25.819Z,14.15
2022-11-13T11:38:35.935Z,14.38
2022-11-13T11:43:43.481Z,15.77
2022-11-13T11:48:45.195Z,15.57
2022-11-13T11:54:04.932Z,16.98
2022-11-13T11:59:33.984Z,15.38
2022-11-13T12:04:53.924Z,15.80
2022-11-13T12:10:22.659Z,17.33
2022-11-13T12:15:35.073Z,16.15
2022-11-13T12:20:47.166Z,16.40
2022-11-13T12:26:01.330Z,17.45
2022-11-13T12:31:38.988Z,16.17
2022-11-13T12:36:41.099Z,16.95
2022-11-13T12:42:11.953Z,19.23
2022-11-13T12:47:14.154Z,15.98
2022-11-13T12:52:15.757Z,15.93
2022-11-13T12:57:28.630Z,17.15
2022-11-13T13:02:37.865Z,16.88
2022-11-13T13:07:45.363Z,16.50
2022-11-13T13:13:02.180Z,16.88
2022-11-13T13:18:03.881Z,17.02
2022-11-13T13:23:08.704Z,17.25
2022-11-13T13:28:10.678Z,17.17
2022-11-13T13:33:48.572Z,17.20
2022-11-13T13:39:05.738Z,17.08
2022-11-13T13:44:26.102Z,16.77
2022-11-13T13:49:30.939Z,16.65
2022-11-13T13:54:34.179Z,16.52
2022-11-13T13:59:37.489Z,16.27
2022-11-13T14:04:47.784Z,16.70
2022-11-13T14:09:49.876Z,16.08
2022-11-13T14:14:51.523Z,16.02
2022-11-13T14:19:54.896Z,15.32
2022-11-13T14:25:00.304Z,16.08
2022-11-13T14:30:03.083Z,16.10
2022-11-13T14:35:05.975Z,15.15
2022-11-13T14:40:26.404Z,14.98
2022-11-13T14:45:31.071Z,16.02
2022-11-13T14:50:35.933Z,15.57
2022-11-13T14:55:51.632Z,15.85
2022-11-13T15:00:53.449Z,15.10
2022-11-13T15:05:55.266Z,14.48
2022-11-13T15:10:57.467Z,15.60
2022-11-13T15:15:59.314Z,16.30
2022-11-13T15:21:00.991Z,15.70
2022-11-13T15:26:03.487Z,15.65
2022-11-13T15:31:30.044Z,16.92
2022-11-13T15:36:31.931Z,17.38
2022-11-13T15:41:34.607Z,16.35
2022-11-13T15:46:36.329Z,16.38
2022-11-13T15:51:41.872Z,18.38
2022-11-13T15:56:44.389Z,18.70
2022-11-13T16:01:47.272Z,17.55
2022-11-13T16:06:49.037Z,18.67
2022-11-13T16:11:50.756Z,16.20
2022-11-13T16:16:53.241Z,19.02
2022-11-13T16:21:55.284Z,17.92
2022-11-13T16:26:58.357Z,17.08
2022-11-13T16:32:00.034Z,17.60
2022-11-13T16:37:02.069Z,18.13
2022-11-13T16:42:03.891Z,17.48
2022-11-13T16:47:06.943Z,17.58
2022-11-13T16:52:08.667Z,17.15
2022-11-13T16:57:12.260Z,17.65
2022-11-13T17:02:16.585Z,17.23
2022-11-13T17:07:18.598Z,16.63
2022-11-13T17:12:22.886Z,16.55
2022-11-13T17:17:24.656Z,16.85
2022-11-13T17:22:26.353Z,17.23
2022-11-13T17:27:28.220Z,15.90
2022-11-13T17:32:30.571Z,15.98
2022-11-13T17:37:32.256Z,15.57
2022-11-13T17:42:33.944Z,15.73
2022-11-13T17:47:35.613Z,16.65
2022-11-13T17:52:37.315Z,17.40
2022-11-13T17:57:38.970Z,16.85
2022-11-13T18:02:40.665Z,17.45
2022-11-13T18:07:42.402Z,17.23
2022-11-13T18:12:44.163Z,17.67
2022-11-13T18:17:51.969Z,18.35
2022-11-13T18:22:54.200Z,18.73
2022-11-13T18:27:56.027Z,19.00
2022-11-13T18:32:57.738Z,16.90
2022-11-13T18:37:59.421Z,17.85
2022-11-13T18:43:01.093Z,18.17
2022-11-13T18:48:02.751Z,18.52
2022-11-13T18:53:04.472Z,18.85
2022-11-13T18:58:06.204Z,19.25
2022-11-13T19:03:07.931Z,19.92
2022-11-13T19:08:09.603Z,19.10
2022-11-13T19:13:11.383Z,19.45
2022-11-13T19:18:13.180Z,18.58
2022-11-13T19:23:14.849Z,18.88
2022-11-13T19:28:17.286Z,19.25
2022-11-13T19:33:18.956Z,20.80
2022-11-13T19:38:21.525Z,19.75
2022-11-13T19:43:23.253Z,19.92
2022-11-13T19:48:25.164Z,19.35
2022-11-13T19:53:26.896Z,20.70
2022-11-13T19:58:29.450Z,20.95
2022-11-13T20:03:31.669Z,20.40
2022-11-13T20:08:35.172Z,20.35
2022-11-13T20:13:38.849Z,20.92
2022-11-13T20:18:41.760Z,21.17
2022-11-13T20:23:43.418Z,20.58
2022-11-13T20:28:45.136Z,21.20
2022-11-13T20:33:47.658Z,20.23
2022-11-13T20:38:51.302Z,21.83
2022-11-13T20:43:56.186Z,20.98
2022-11-13T20:48:58.332Z,21.27
2022-11-13T20:54:00.443Z,21.08
2022-11-13T20:59:04.015Z,22.27
2022-11-13T21:04:05.811Z,22.88
2022-11-13T21:09:07.564Z,23.20
2022-11-13T21:14:10.753Z,22.95
2022-11-13T21:19:12.525Z,21.65
2022-11-13T21:24:14.198Z,22.77
2022-11-13T21:29:15.843Z,24.08
2022-11-13T21:34:17.485Z,24.30
2022-11-13T21:39:19.151Z,23.33
2022-11-13T21:44:20.900Z,24.00
2022-11-13T21:49:22.905Z,23.52
2022-11-13T21:54:24.568Z,23.50
2022-11-13T21:59:26.267Z,23.45
2022-11-13T22:04:27.972Z,24.23
2022-11-13T22:09:29.617Z,23.67
2022-11-13T22:14:31.349Z,24.70
2022-11-13T22:19:36.239Z,23.65
2022-11-13T22:24:38.227Z,23.05
2022-11-13T22:29:39.941Z,23.58
2022-11-13T22:34:41.714Z,23.63
2022-11-13T22:39:43.518Z,22.85
2022-11-13T22:44:55.462Z,23.17
2022-11-13T22:49:59.087Z,22.98
2022-11-13T22:55:01.125Z,22.13
2022-11-13T23:00:09.309Z,22.25
2022-11-13T23:05:11.228Z,22.23
2022-11-13T23:10:13.274Z,22.33
2022-11-13T23:15:15.150Z,21.40
2022-11-13T23:20:17.051Z,23.67
2022-11-13T23:25:18.833Z,22.48
2022-11-13T23:30:20.535Z,24.20
2022-11-13T23:35:22.326Z,25.40
2022-11-13T23:40:24.156Z,24.17
2022-11-13T23:45:26.064Z,26.02
2022-11-13T23:50:28.307Z,25.08
2022-11-13T23:55:30.134Z,27.27
